sensor_id;sensor_type;location;lat;lon;timestamp;P1;durP1;ratioP1;P2;durP2;ratioP2
16593;SDS011;8410;52.532;13.336;2023-07-13T00:01:04;3.03;;;1.83;;
16593;SDS011;8410;52.532;13.336;2023-07-13T00:03:32;3.70;;;2.10;;
16593;SDS011;8410;52.532;13.336;2023-07-13T00:06:01;3.28;;;1.92;;
16593;SDS011;8410;52.532;13.336;2023-07-13T00:08:30;3.90;;;2.10;;
16593;SDS011;8410;52.532;13.336;2023-07-13T00:10:59;4.03;;;2.00;;
16593;SDS011;8410;52.532;13.336;2023-07-13T00:13:26;2.60;;;2.22;;
16593;SDS011;8410;52.532;13.336;2023-07-13T00:15:56;7.15;;;3.30;;
16593;SDS011;8410;52.532;13.336;2023-07-13T00:18:24;3.58;;;2.50;;
16593;SDS011;8410;52.532;13.336;2023-07-13T00:20:52;7.63;;;5.55;;
16593;SDS011;8410;52.532;13.336;2023-07-13T00:23:19;7.03;;;5.10;;
16593;SDS011;8410;52.532;13.336;2023-07-13T00:25:47;7.18;;;5.05;;
16593;SDS011;8410;52.532;13.336;2023-07-13T00:28:16;5.45;;;3.28;;
16593;SDS011;8410;52.532;13.336;2023-07-13T00:30:44;10.43;;;6.20;;
16593;SDS011;8410;52.532;13.336;2023-07-13T00:33:14;8.90;;;7.60;;
16593;SDS011;8410;52.532;13.336;2023-07-13T00:35:44;7.60;;;6.72;;
16593;SDS011;8410;52.532;13.336;2023-07-13T00:38:11;3.20;;;2.38;;
16593;SDS011;8410;52.532;13.336;2023-07-13T00:40:39;1.95;;;1.77;;
16593;SDS011;8410;52.532;13.336;2023-07-13T00:43:09;4.63;;;2.60;;
16593;SDS011;8410;52.532;13.336;2023-07-13T00:48:48;3.65;;;2.47;;
16593;SDS011;8410;52.532;13.336;2023-07-13T00:51:19;12.07;;;9.02;;
16593;SDS011;8410;52.532;13.336;2023-07-13T00:53:51;6.65;;;5.80;;
16593;SDS011;8410;52.532;13.336;2023-07-13T00:56:21;3.38;;;1.92;;
16593;SDS011;8410;52.532;13.336;2023-07-13T00:58:49;3.58;;;2.03;;
16593;SDS011;8410;52.532;13.336;2023-07-13T01:01:17;4.45;;;2.10;;
16593;SDS011;8410;52.532;13.336;2023-07-13T01:03:45;4.03;;;2.10;;
16593;SDS011;8410;52.532;13.336;2023-07-13T01:06:14;4.20;;;2.40;;
16593;SDS011;8410;52.532;13.336;2023-07-13T01:08:44;2.67;;;2.10;;
16593;SDS011;8410;52.532;13.336;2023-07-13T01:11:11;6.93;;;4.85;;
16593;SDS011;8410;52.532;13.336;2023-07-13T01:13:39;2.90;;;2.40;;
16593;SDS011;8410;52.532;13.336;2023-07-13T01:16:11;3.53;;;2.30;;
16593;SDS011;8410;52.532;13.336;2023-07-13T01:18:42;2.60;;;2.08;;
16593;SDS011;8410;52.532;13.336;2023-07-13T01:21:11;3.67;;;2.65;;
16593;SDS011;8410;52.532;13.336;2023-07-13T01:23:38;3.78;;;2.53;;
16593;SDS011;8410;52.532;13.336;2023-07-13T01:26:05;4.90;;;2.50;;
16593;SDS011;8410;52.532;13.336;2023-07-13T01:28:33;3.75;;;2.60;;
16593;SDS011;8410;52.532;13.336;2023-07-13T01:31:04;5.68;;;2.80;;
16593;SDS011;8410;52.532;13.336;2023-07-13T01:33:31;4.13;;;2.97;;
16593;SDS011;8410;52.532;13.336;2023-07-13T01:36:00;6.05;;;3.03;;
16593;SDS011;8410;52.532;13.336;2023-07-13T01:38:29;4.63;;;2.60;;
16593;SDS011;8410;52.532;13.336;2023-07-13T01:40:57;5.20;;;3.13;;
16593;SDS011;8410;52.532;13.336;2023-07-13T01:43:24;5.40;;;3.35;;
16593;SDS011;8410;52.532;13.336;2023-07-13T01:45:52;4.22;;;2.75;;
16593;SDS011;8410;52.532;13.336;2023-07-13T01:48:28;3.90;;;2.50;;
16593;SDS011;8410;52.532;13.336;2023-07-13T01:50:56;4.38;;;3.00;;
16593;SDS011;8410;52.532;13.336;2023-07-13T01:53:23;4.72;;;3.22;;
16593;SDS011;8410;52.532;13.336;2023-07-13T01:55:52;4.80;;;3.42;;
16593;SDS011;8410;52.532;13.336;2023-07-13T01:58:20;5.18;;;3.20;;
16593;SDS011;8410;52.532;13.336;2023-07-13T02:00:48;6.53;;;3.50;;
16593;SDS011;8410;52.532;13.336;2023-07-13T02:03:15;4.55;;;3.47;;
16593;SDS011;8410;52.532;13.336;2023-07-13T02:05:44;3.72;;;2.97;;
16593;SDS011;8410;52.532;13.336;2023-07-13T02:08:12;3.63;;;2.92;;
16593;SDS011;8410;52.532;13.336;2023-07-13T02:10:39;5.03;;;3.53;;
16593;SDS011;8410;52.532;13.336;2023-07-13T02:13:08;4.57;;;2.80;;
16593;SDS011;8410;52.532;13.336;2023-07-13T02:15:38;5.05;;;2.78;;
16593;SDS011;8410;52.532;13.336;2023-07-13T02:18:06;4.40;;;2.85;;
16593;SDS011;8410;52.532;13.336;2023-07-13T02:20:34;4.03;;;2.75;;
16593;SDS011;8410;52.532;13.336;2023-07-13T02:23:02;6.22;;;3.00;;
16593;SDS011;8410;52.532;13.336;2023-07-13T02:25:32;4.60;;;2.80;;
16593;SDS011;8410;52.532;13.336;2023-07-13T02:28:00;4.28;;;3.00;;
16593;SDS011;8410;52.532;13.336;2023-07-13T02:30:29;4.65;;;2.80;;
16593;SDS011;8410;52.532;13.336;2023-07-13T02:32:57;3.28;;;2.40;;
16593;SDS011;8410;52.532;13.336;2023-07-13T02:35:24;4.10;;;2.50;;
16593;SDS011;8410;52.532;13.336;2023-07-13T02:37:52;6.60;;;2.80;;
16593;SDS011;8410;52.532;13.336;2023-07-13T02:40:19;5.40;;;2.25;;
16593;SDS011;8410;52.532;13.336;2023-07-13T02:42:47;4.22;;;3.00;;
16593;SDS011;8410;52.532;13.336;2023-07-13T02:45:15;3.58;;;2.85;;
16593;SDS011;8410;52.532;13.336;2023-07-13T02:47:44;3.83;;;2.30;;
16593;SDS011;8410;52.532;13.336;2023-07-13T02:50:12;5.82;;;2.45;;
16593;SDS011;8410;52.532;13.336;2023-07-13T02:52:39;5.25;;;2.88;;
16593;SDS011;8410;52.532;13.336;2023-07-13T02:55:07;6.05;;;3.00;;
16593;SDS011;8410;52.532;13.336;2023-07-13T02:57:35;5.95;;;2.53;;
16593;SDS011;8410;52.532;13.336;2023-07-13T03:00:03;4.03;;;2.28;;
16593;SDS011;8410;52.532;13.336;2023-07-13T03:02:32;3.30;;;2.53;;
16593;SDS011;8410;52.532;13.336;2023-07-13T03:05:02;6.32;;;2.35;;
16593;SDS011;8410;52.532;13.336;2023-07-13T03:07:31;7.47;;;2.72;;
16593;SDS011;8410;52.532;13.336;2023-07-13T03:09:58;6.60;;;2.55;;
16593;SDS011;8410;52.532;13.336;2023-07-13T03:12:26;4.18;;;2.60;;
16593;SDS011;8410;52.532;13.336;2023-07-13T03:14:53;5.63;;;2.22;;
16593;SDS011;8410;52.532;13.336;2023-07-13T03:17:21;7.60;;;2.90;;
16593;SDS011;8410;52.532;13.336;2023-07-13T03:19:49;3.50;;;2.25;;
16593;SDS011;8410;52.532;13.336;2023-07-13T03:22:18;5.30;;;2.42;;
16593;SDS011;8410;52.532;13.336;2023-07-13T03:24:46;3.63;;;2.35;;
16593;SDS011;8410;52.532;13.336;2023-07-13T03:27:15;3.95;;;2.33;;
16593;SDS011;8410;52.532;13.336;2023-07-13T03:29:43;4.13;;;2.65;;
16593;SDS011;8410;52.532;13.336;2023-07-13T03:32:10;3.42;;;2.30;;
16593;SDS011;8410;52.532;13.336;2023-07-13T03:34:38;3.00;;;2.38;;
16593;SDS011;8410;52.532;13.336;2023-07-13T03:37:05;4.07;;;2.47;;
16593;SDS011;8410;52.532;13.336;2023-07-13T03:39:34;4.72;;;2.28;;
16593;SDS011;8410;52.532;13.336;2023-07-13T03:42:02;4.90;;;2.50;;
16593;SDS011;8410;52.532;13.336;2023-07-13T03:44:30;3.08;;;2.40;;
16593;SDS011;8410;52.532;13.336;2023-07-13T03:46:57;2.83;;;2.17;;
16593;SDS011;8410;52.532;13.336;2023-07-13T03:49:25;4.57;;;2.45;;
16593;SDS011;8410;52.532;13.336;2023-07-13T03:51:52;3.00;;;2.42;;
16593;SDS011;8410;52.532;13.336;2023-07-13T03:54:20;5.38;;;2.50;;
16593;SDS011;8410;52.532;13.336;2023-07-13T03:56:49;4.07;;;2.70;;
16593;SDS011;8410;52.532;13.336;2023-07-13T03:59:16;3.78;;;2.55;;
16593;SDS011;8410;52.532;13.336;2023-07-13T04:01:44;7.40;;;2.97;;
16593;SDS011;8410;52.532;13.336;2023-07-13T04:04:11;4.75;;;3.28;;
16593;SDS011;8410;52.532;13.336;2023-07-13T04:06:39;3.72;;;3.40;;
16593;SDS011;8410;52.532;13.336;2023-07-13T04:09:07;4.13;;;3.05;;
16593;SDS011;8410;52.532;13.336;2023-07-13T04:11:35;4.05;;;2.25;;
16593;SDS011;8410;52.532;13.336;2023-07-13T04:14:04;5.15;;;2.55;;
16593;SDS011;8410;52.532;13.336;2023-07-13T04:16:32;6.50;;;2.47;;
16593;SDS011;8410;52.532;13.336;2023-07-13T04:18:59;4.38;;;2.42;;
16593;SDS011;8410;52.532;13.336;2023-07-13T04:21:28;3.95;;;2.60;;
16593;SDS011;8410;52.532;13.336;2023-07-13T04:23:57;4.80;;;2.50;;
16593;SDS011;8410;52.532;13.336;2023-07-13T04:26:25;5.82;;;2.60;;
16593;SDS011;8410;52.532;13.336;2023-07-13T04:28:52;2.83;;;2.10;;
16593;SDS011;8410;52.532;13.336;2023-07-13T04:31:21;5.30;;;2.70;;
16593;SDS011;8410;52.532;13.336;2023-07-13T04:33:49;5.55;;;2.10;;
16593;SDS011;8410;52.532;13.336;2023-07-13T04:36:17;3.17;;;1.92;;
16593;SDS011;8410;52.532;13.336;2023-07-13T04:38:45;4.50;;;2.58;;
16593;SDS011;8410;52.532;13.336;2023-07-13T04:41:12;4.22;;;2.50;;
16593;SDS011;8410;52.532;13.336;2023-07-13T04:43:41;7.15;;;2.58;;
16593;SDS011;8410;52.532;13.336;2023-07-13T04:46:11;3.05;;;2.00;;
16593;SDS011;8410;52.532;13.336;2023-07-13T04:48:43;4.10;;;2.70;;
16593;SDS011;8410;52.532;13.336;2023-07-13T04:51:11;4.15;;;2.28;;
16593;SDS011;8410;52.532;13.336;2023-07-13T04:53:38;3.28;;;2.22;;
16593;SDS011;8410;52.532;13.336;2023-07-13T04:56:06;5.00;;;2.38;;
16593;SDS011;8410;52.532;13.336;2023-07-13T04:58:34;5.63;;;2.33;;
16593;SDS011;8410;52.532;13.336;2023-07-13T05:01:02;5.07;;;2.80;;
16593;SDS011;8410;52.532;13.336;2023-07-13T05:03:30;6.95;;;2.53;;
16593;SDS011;8410;52.532;13.336;2023-07-13T05:06:00;5.38;;;2.70;;
16593;SDS011;8410;52.532;13.336;2023-07-13T05:08:30;5.45;;;2.63;;
16593;SDS011;8410;52.532;13.336;2023-07-13T05:10:59;4.38;;;2.33;;
16593;SDS011;8410;52.532;13.336;2023-07-13T05:13:27;4.95;;;2.70;;
16593;SDS011;8410;52.532;13.336;2023-07-13T05:15:56;10.63;;;2.97;;
16593;SDS011;8410;52.532;13.336;2023-07-13T05:18:25;6.35;;;2.70;;
16593;SDS011;8410;52.532;13.336;2023-07-13T05:21:00;4.78;;;2.50;;
16593;SDS011;8410;52.532;13.336;2023-07-13T05:23:29;3.50;;;2.47;;
16593;SDS011;8410;52.532;13.336;2023-07-13T05:25:57;8.25;;;3.03;;
16593;SDS011;8410;52.532;13.336;2023-07-13T05:28:25;5.38;;;2.80;;
16593;SDS011;8410;52.532;13.336;2023-07-13T05:30:54;10.75;;;3.10;;
16593;SDS011;8410;52.532;13.336;2023-07-13T05:33:22;5.00;;;2.55;;
16593;SDS011;8410;52.532;13.336;2023-07-13T05:35:50;6.03;;;2.45;;
16593;SDS011;8410;52.532;13.336;2023-07-13T05:38:19;5.95;;;2.63;;
16593;SDS011;8410;52.532;13.336;2023-07-13T05:40:47;4.10;;;2.75;;
16593;SDS011;8410;52.532;13.336;2023-07-13T05:43:15;3.88;;;2.08;;
16593;SDS011;8410;52.532;13.336;2023-07-13T05:45:42;4.72;;;2.50;;
16593;SDS011;8410;52.532;13.336;2023-07-13T05:48:10;4.55;;;2.50;;
16593;SDS011;8410;52.532;13.336;2023-07-13T05:50:38;5.45;;;2.30;;
16593;SDS011;8410;52.532;13.336;2023-07-13T05:53:05;6.82;;;2.80;;
16593;SDS011;8410;52.532;13.336;2023-07-13T05:55:34;5.43;;;2.20;;
16593;SDS011;8410;52.532;13.336;2023-07-13T05:58:02;6.20;;;2.50;;
16593;SDS011;8410;52.532;13.336;2023-07-13T06:00:29;4.20;;;2.45;;
16593;SDS011;8410;52.532;13.336;2023-07-13T06:02:57;6.15;;;2.70;;
16593;SDS011;8410;52.532;13.336;2023-07-13T06:05:25;6.90;;;2.35;;
16593;SDS011;8410;52.532;13.336;2023-07-13T06:07:53;4.88;;;2.45;;
16593;SDS011;8410;52.532;13.336;2023-07-13T06:10:20;3.92;;;2.03;;
16593;SDS011;8410;52.532;13.336;2023-07-13T06:12:49;6.05;;;2.47;;
16593;SDS011;8410;52.532;13.336;2023-07-13T06:15:17;4.80;;;2.00;;
16593;SDS011;8410;52.532;13.336;2023-07-13T06:17:45;3.45;;;2.33;;
16593;SDS011;8410;52.532;13.336;2023-07-13T06:20:12;2.95;;;1.80;;
16593;SDS011;8410;52.532;13.336;2023-07-13T06:22:40;6.05;;;2.40;;
16593;SDS011;8410;52.532;13.336;2023-07-13T06:25:08;3.30;;;2.00;;
16593;SDS011;8410;52.532;13.336;2023-07-13T06:27:36;3.88;;;2.38;;
16593;SDS011;8410;52.532;13.336;2023-07-13T06:30:05;7.57;;;1.95;;
16593;SDS011;8410;52.532;13.336;2023-07-13T06:32:33;4.07;;;2.20;;
16593;SDS011;8410;52.532;13.336;2023-07-13T06:35:05;2.75;;;1.95;;
16593;SDS011;8410;52.532;13.336;2023-07-13T06:37:33;3.33;;;1.70;;
16593;SDS011;8410;52.532;13.336;2023-07-13T06:40:00;3.50;;;2.20;;
16593;SDS011;8410;52.532;13.336;2023-07-13T06:42:28;3.83;;;1.80;;
16593;SDS011;8410;52.532;13.336;2023-07-13T06:44:55;3.08;;;1.42;;
16593;SDS011;8410;52.532;13.336;2023-07-13T06:47:24;5.38;;;2.00;;
16593;SDS011;8410;52.532;13.336;2023-07-13T06:49:51;3.72;;;1.52;;
16593;SDS011;8410;52.532;13.336;2023-07-13T06:52:19;2.45;;;1.42;;
16593;SDS011;8410;52.532;13.336;2023-07-13T06:54:46;4.63;;;1.95;;
16593;SDS011;8410;52.532;13.336;2023-07-13T06:57:14;4.18;;;1.70;;
16593;SDS011;8410;52.532;13.336;2023-07-13T06:59:42;3.88;;;1.67;;
16593;SDS011;8410;52.532;13.336;2023-07-13T07:02:10;3.50;;;1.60;;
16593;SDS011;8410;52.532;13.336;2023-07-13T07:04:39;3.38;;;1.30;;
16593;SDS011;8410;52.532;13.336;2023-07-13T07:07:06;4.55;;;1.50;;
16593;SDS011;8410;52.532;13.336;2023-07-13T07:09:34;4.43;;;1.55;;
16593;SDS011;8410;52.532;13.336;2023-07-13T07:12:02;2.10;;;1.60;;
16593;SDS011;8410;52.532;13.336;2023-07-13T07:14:30;2.45;;;1.60;;
16593;SDS011;8410;52.532;13.336;2023-07-13T07:16:58;2.25;;;1.52;;
16593;SDS011;8410;52.532;13.336;2023-07-13T07:19:26;2.60;;;1.23;;
16593;SDS011;8410;52.532;13.336;2023-07-13T07:21:55;2.15;;;1.90;;
16593;SDS011;8410;52.532;13.336;2023-07-13T07:24:22;4.25;;;1.67;;
16593;SDS011;8410;52.532;13.336;2023-07-13T07:26:49;6.90;;;1.80;;
16593;SDS011;8410;52.532;13.336;2023-07-13T07:29:20;4.47;;;1.88;;
16593;SDS011;8410;52.532;13.336;2023-07-13T07:31:51;3.97;;;1.60;;
16593;SDS011;8410;52.532;13.336;2023-07-13T07:34:21;3.65;;;1.70;;
16593;SDS011;8410;52.532;13.336;2023-07-13T07:36:50;5.50;;;1.88;;
16593;SDS011;8410;52.532;13.336;2023-07-13T07:39:21;2.28;;;1.60;;
16593;SDS011;8410;52.532;13.336;2023-07-13T07:41:49;3.08;;;1.63;;
16593;SDS011;8410;52.532;13.336;2023-07-13T07:44:19;3.28;;;1.70;;
16593;SDS011;8410;52.532;13.336;2023-07-13T07:46:47;2.35;;;1.30;;
16593;SDS011;8410;52.532;13.336;2023-07-13T07:49:14;4.60;;;1.70;;
16593;SDS011;8410;52.532;13.336;2023-07-13T07:51:42;2.42;;;1.63;;
16593;SDS011;8410;52.532;13.336;2023-07-13T07:54:09;2.90;;;1.40;;
16593;SDS011;8410;52.532;13.336;2023-07-13T07:56:44;4.93;;;1.70;;
16593;SDS011;8410;52.532;13.336;2023-07-13T07:59:32;2.80;;;1.60;;
16593;SDS011;8410;52.532;13.336;2023-07-13T08:02:02;2.90;;;1.50;;
16593;SDS011;8410;52.532;13.336;2023-07-13T08:04:33;2.83;;;1.50;;
16593;SDS011;8410;52.532;13.336;2023-07-13T08:07:03;3.85;;;1.70;;
16593;SDS011;8410;52.532;13.336;2023-07-13T08:09:31;3.95;;;2.10;;
16593;SDS011;8410;52.532;13.336;2023-07-13T08:12:00;4.60;;;1.83;;
16593;SDS011;8410;52.532;13.336;2023-07-13T08:14:31;2.47;;;1.70;;
16593;SDS011;8410;52.532;13.336;2023-07-13T08:17:17;5.78;;;1.52;;
16593;SDS011;8410;52.532;13.336;2023-07-13T08:19:45;2.58;;;1.60;;
16593;SDS011;8410;52.532;13.336;2023-07-13T08:22:12;4.22;;;1.60;;
16593;SDS011;8410;52.532;13.336;2023-07-13T08:24:40;3.13;;;1.83;;
16593;SDS011;8410;52.532;13.336;2023-07-13T08:27:11;3.00;;;1.55;;
16593;SDS011;8410;52.532;13.336;2023-07-13T08:29:38;5.18;;;1.60;;
16593;SDS011;8410;52.532;13.336;2023-07-13T08:32:07;2.55;;;1.40;;
16593;SDS011;8410;52.532;13.336;2023-07-13T08:34:37;1.67;;;1.40;;
16593;SDS011;8410;52.532;13.336;2023-07-13T08:37:05;5.30;;;1.40;;
16593;SDS011;8410;52.532;13.336;2023-07-13T08:39:32;2.85;;;1.27;;
16593;SDS011;8410;52.532;13.336;2023-07-13T08:42:11;2.34;;;1.52;;
16593;SDS011;8410;52.532;13.336;2023-07-13T08:44:45;2.45;;;1.10;;
16593;SDS011;8410;52.532;13.336;2023-07-13T08:47:22;2.25;;;1.50;;
16593;SDS011;8410;52.532;13.336;2023-07-13T08:49:52;2.33;;;1.20;;
16593;SDS011;8410;52.532;13.336;2023-07-13T08:52:26;2.22;;;1.50;;
16593;SDS011;8410;52.532;13.336;2023-07-13T08:55:02;2.85;;;1.45;;
16593;SDS011;8410;52.532;13.336;2023-07-13T08:57:38;5.20;;;1.90;;
16593;SDS011;8410;52.532;13.336;2023-07-13T09:00:09;4.45;;;1.33;;
16593;SDS011;8410;52.532;13.336;2023-07-13T09:02:40;2.75;;;1.30;;
16593;SDS011;8410;52.532;13.336;2023-07-13T09:05:13;2.05;;;1.10;;
16593;SDS011;8410;52.532;13.336;2023-07-13T09:07:50;2.67;;;1.15;;
16593;SDS011;8410;52.532;13.336;2023-07-13T09:10:28;4.07;;;1.40;;
16593;SDS011;8410;52.532;13.336;2023-07-13T09:13:07;5.90;;;1.30;;
16593;SDS011;8410;52.532;13.336;2023-07-13T09:15:46;6.57;;;1.83;;
16593;SDS011;8410;52.532;13.336;2023-07-13T09:18:18;2.97;;;1.23;;
16593;SDS011;8410;52.532;13.336;2023-07-13T09:20:52;2.63;;;1.30;;
16593;SDS011;8410;52.532;13.336;2023-07-13T09:23:24;1.40;;;1.13;;
16593;SDS011;8410;52.532;13.336;2023-07-13T09:26:04;3.70;;;1.30;;
16593;SDS011;8410;52.532;13.336;2023-07-13T09:28:40;2.08;;;1.35;;
16593;SDS011;8410;52.532;13.336;2023-07-13T09:31:11;1.85;;;1.30;;
16593;SDS011;8410;52.532;13.336;2023-07-13T09:33:41;4.15;;;1.50;;
16593;SDS011;8410;52.532;13.336;2023-07-13T09:36:16;4.05;;;1.50;;
16593;SDS011;8410;52.532;13.336;2023-07-13T09:38:45;3.13;;;1.70;;
16593;SDS011;8410;52.532;13.336;2023-07-13T09:41:19;6.72;;;1.60;;
16593;SDS011;8410;52.532;13.336;2023-07-13T09:44:12;2.47;;;1.65;;
16593;SDS011;8410;52.532;13.336;2023-07-13T09:46:43;3.40;;;2.10;;
16593;SDS011;8410;52.532;13.336;2023-07-13T09:49:12;3.90;;;1.98;;
16593;SDS011;8410;52.532;13.336;2023-07-13T09:51:47;4.00;;;2.30;;
16593;SDS011;8410;52.532;13.336;2023-07-13T09:54:18;6.25;;;2.00;;
16593;SDS011;8410;52.532;13.336;2023-07-13T09:56:47;4.00;;;1.80;;
16593;SDS011;8410;52.532;13.336;2023-07-13T09:59:20;2.40;;;1.67;;
16593;SDS011;8410;52.532;13.336;2023-07-13T10:01:50;2.80;;;2.10;;
16593;SDS011;8410;52.532;13.336;2023-07-13T10:04:18;4.50;;;2.30;;
16593;SDS011;8410;52.532;13.336;2023-07-13T10:06:47;3.35;;;2.33;;
16593;SDS011;8410;52.532;13.336;2023-07-13T10:09:18;3.40;;;2.10;;
16593;SDS011;8410;52.532;13.336;2023-07-13T10:11:46;4.00;;;2.33;;
16593;SDS011;8410;52.532;13.336;2023-07-13T10:14:15;6.07;;;3.05;;
16593;SDS011;8410;52.532;13.336;2023-07-13T10:16:46;3.03;;;2.17;;
16593;SDS011;8410;52.532;13.336;2023-07-13T10:19:17;4.47;;;2.10;;
16593;SDS011;8410;52.532;13.336;2023-07-13T10:21:50;5.35;;;2.20;;
16593;SDS011;8410;52.532;13.336;2023-07-13T10:24:22;2.85;;;2.17;;
16593;SDS011;8410;52.532;13.336;2023-07-13T10:26:52;3.72;;;2.30;;
16593;SDS011;8410;52.532;13.336;2023-07-13T10:29:24;2.15;;;1.98;;
16593;SDS011;8410;52.532;13.336;2023-07-13T10:31:57;5.70;;;2.30;;
16593;SDS011;8410;52.532;13.336;2023-07-13T10:34:24;2.97;;;1.80;;
16593;SDS011;8410;52.532;13.336;2023-07-13T10:36:52;6.45;;;2.33;;
16593;SDS011;8410;52.532;13.336;2023-07-13T10:39:21;3.97;;;1.83;;
16593;SDS011;8410;52.532;13.336;2023-07-13T10:41:52;3.80;;;2.35;;
16593;SDS011;8410;52.532;13.336;2023-07-13T10:44:23;5.88;;;2.15;;
16593;SDS011;8410;52.532;13.336;2023-07-13T10:46:55;3.17;;;1.75;;
16593;SDS011;8410;52.532;13.336;2023-07-13T10:49:26;3.65;;;2.20;;
16593;SDS011;8410;52.532;13.336;2023-07-13T10:51:58;3.22;;;2.03;;
16593;SDS011;8410;52.532;13.336;2023-07-13T10:54:27;2.65;;;2.10;;
16593;SDS011;8410;52.532;13.336;2023-07-13T10:57:08;3.33;;;2.15;;
16593;SDS011;8410;52.532;13.336;2023-07-13T10:59:44;3.67;;;2.15;;
16593;SDS011;8410;52.532;13.336;2023-07-13T11:02:17;4.18;;;2.25;;
16593;SDS011;8410;52.532;13.336;2023-07-13T11:04:53;4.03;;;1.85;;
16593;SDS011;8410;52.532;13.336;2023-07-13T11:07:24;3.97;;;2.20;;
16593;SDS011;8410;52.532;13.336;2023-07-13T11:09:54;2.45;;;1.90;;
16593;SDS011;8410;52.532;13.336;2023-07-13T11:12:28;7.55;;;2.38;;
16593;SDS011;8410;52.532;13.336;2023-07-13T11:15:12;2.67;;;1.92;;
16593;SDS011;8410;52.532;13.336;2023-07-13T11:17:53;5.07;;;2.10;;
16593;SDS011;8410;52.532;13.336;2023-07-13T11:20:35;6.65;;;2.10;;
16593;SDS011;8410;52.532;13.336;2023-07-13T11:23:15;3.20;;;2.00;;
16593;SDS011;8410;52.532;13.336;2023-07-13T11:25:46;4.60;;;2.20;;
16593;SDS011;8410;52.532;13.336;2023-07-13T11:28:18;3.25;;;2.08;;
16593;SDS011;8410;52.532;13.336;2023-07-13T11:30:59;2.72;;;2.13;;
16593;SDS011;8410;52.532;13.336;2023-07-13T11:33:50;5.78;;;2.30;;
16593;SDS011;8410;52.532;13.336;2023-07-13T11:36:21;3.90;;;1.80;;
16593;SDS011;8410;52.532;13.336;2023-07-13T11:38:55;4.40;;;1.92;;
16593;SDS011;8410;52.532;13.336;2023-07-13T11:41:29;3.03;;;1.98;;
16593;SDS011;8410;52.532;13.336;2023-07-13T11:44:05;3.28;;;1.88;;
16593;SDS011;8410;52.532;13.336;2023-07-13T11:46:35;2.97;;;1.83;;
16593;SDS011;8410;52.532;13.336;2023-07-13T11:49:05;3.50;;;1.75;;
16593;SDS011;8410;52.532;13.336;2023-07-13T11:51:34;4.03;;;1.95;;
16593;SDS011;8410;52.532;13.336;2023-07-13T11:54:04;2.40;;;1.65;;
16593;SDS011;8410;52.532;13.336;2023-07-13T11:56:33;2.38;;;1.60;;
16593;SDS011;8410;52.532;13.336;2023-07-13T11:59:04;3.75;;;2.00;;
16593;SDS011;8410;52.532;13.336;2023-07-13T12:01:34;4.18;;;1.90;;
16593;SDS011;8410;52.532;13.336;2023-07-13T12:04:14;3.60;;;2.00;;
16593;SDS011;8410;52.532;13.336;2023-07-13T12:06:54;2.92;;;1.90;;
16593;SDS011;8410;52.532;13.336;2023-07-13T12:09:22;5.32;;;2.47;;
16593;SDS011;8410;52.532;13.336;2023-07-13T12:11:51;4.68;;;1.83;;
16593;SDS011;8410;52.532;13.336;2023-07-13T12:14:19;4.85;;;1.67;;
16593;SDS011;8410;52.532;13.336;2023-07-13T12:16:50;3.70;;;2.40;;
16593;SDS011;8410;52.532;13.336;2023-07-13T12:19:20;3.95;;;2.10;;
16593;SDS011;8410;52.532;13.336;2023-07-13T12:21:50;5.50;;;1.80;;
16593;SDS011;8410;52.532;13.336;2023-07-13T12:24:21;3.90;;;1.90;;
16593;SDS011;8410;52.532;13.336;2023-07-13T12:26:50;3.13;;;1.75;;
16593;SDS011;8410;52.532;13.336;2023-07-13T12:29:19;2.85;;;1.58;;
16593;SDS011;8410;52.532;13.336;2023-07-13T12:31:48;4.80;;;1.90;;
16593;SDS011;8410;52.532;13.336;2023-07-13T12:34:20;4.78;;;1.77;;
16593;SDS011;8410;52.532;13.336;2023-07-13T12:36:49;3.03;;;1.90;;
16593;SDS011;8410;52.532;13.336;2023-07-13T12:39:20;5.63;;;1.75;;
16593;SDS011;8410;52.532;13.336;2023-07-13T12:41:50;5.68;;;2.05;;
16593;SDS011;8410;52.532;13.336;2023-07-13T12:44:21;3.42;;;1.70;;
16593;SDS011;8410;52.532;13.336;2023-07-13T12:46:53;2.25;;;1.25;;
16593;SDS011;8410;52.532;13.336;2023-07-13T12:49:26;4.13;;;1.60;;
16593;SDS011;8410;52.532;13.336;2023-07-13T12:51:59;2.30;;;1.30;;
16593;SDS011;8410;52.532;13.336;2023-07-13T12:54:29;4.85;;;1.92;;
16593;SDS011;8410;52.532;13.336;2023-07-13T12:56:58;5.18;;;2.42;;
16593;SDS011;8410;52.532;13.336;2023-07-13T12:59:31;3.95;;;1.90;;
16593;SDS011;8410;52.532;13.336;2023-07-13T13:02:08;3.25;;;1.73;;
16593;SDS011;8410;52.532;13.336;2023-07-13T13:04:52;4.10;;;1.60;;
16593;SDS011;8410;52.532;13.336;2023-07-13T13:07:21;2.03;;;1.33;;
16593;SDS011;8410;52.532;13.336;2023-07-13T13:09:49;3.95;;;1.40;;
16593;SDS011;8410;52.532;13.336;2023-07-13T13:12:16;3.88;;;1.63;;
16593;SDS011;8410;52.532;13.336;2023-07-13T13:14:44;4.47;;;1.80;;
16593;SDS011;8410;52.532;13.336;2023-07-13T13:17:15;10.88;;;6.80;;
16593;SDS011;8410;52.532;13.336;2023-07-13T13:19:46;9.27;;;5.28;;
16593;SDS011;8410;52.532;13.336;2023-07-13T13:22:16;10.25;;;7.10;;
16593;SDS011;8410;52.532;13.336;2023-07-13T13:24:44;7.00;;;4.88;;
16593;SDS011;8410;52.532;13.336;2023-07-13T13:27:14;7.45;;;4.97;;
16593;SDS011;8410;52.532;13.336;2023-07-13T13:29:43;2.90;;;2.15;;
16593;SDS011;8410;52.532;13.336;2023-07-13T13:32:12;3.05;;;1.83;;
16593;SDS011;8410;52.532;13.336;2023-07-13T13:34:41;6.15;;;1.75;;
16593;SDS011;8410;52.532;13.336;2023-07-13T13:37:17;5.55;;;2.53;;
16593;SDS011;8410;52.532;13.336;2023-07-13T13:39:46;3.20;;;1.60;;
16593;SDS011;8410;52.532;13.336;2023-07-13T13:42:33;2.72;;;1.30;;
16593;SDS011;8410;52.532;13.336;2023-07-13T13:45:00;5.32;;;1.58;;
16593;SDS011;8410;52.532;13.336;2023-07-13T13:47:29;3.92;;;1.40;;
16593;SDS011;8410;52.532;13.336;2023-07-13T13:49:59;3.33;;;1.50;;
16593;SDS011;8410;52.532;13.336;2023-07-13T13:52:28;2.90;;;1.73;;
16593;SDS011;8410;52.532;13.336;2023-07-13T13:54:56;3.22;;;1.50;;
16593;SDS011;8410;52.532;13.336;2023-07-13T13:57:24;3.60;;;1.52;;
16593;SDS011;8410;52.532;13.336;2023-07-13T13:59:52;3.05;;;1.17;;
16593;SDS011;8410;52.532;13.336;2023-07-13T14:02:22;2.38;;;1.80;;
16593;SDS011;8410;52.532;13.336;2023-07-13T14:04:53;3.38;;;1.55;;
16593;SDS011;8410;52.532;13.336;2023-07-13T14:07:23;5.65;;;1.63;;
16593;SDS011;8410;52.532;13.336;2023-07-13T14:09:54;1.65;;;1.13;;
16593;SDS011;8410;52.532;13.336;2023-07-13T14:12:24;3.08;;;1.42;;
16593;SDS011;8410;52.532;13.336;2023-07-13T14:14:54;2.83;;;1.35;;
16593;SDS011;8410;52.532;13.336;2023-07-13T14:17:24;4.47;;;1.48;;
16593;SDS011;8410;52.532;13.336;2023-07-13T14:19:54;3.80;;;1.50;;
16593;SDS011;8410;52.532;13.336;2023-07-13T14:22:23;2.92;;;1.40;;
16593;SDS011;8410;52.532;13.336;2023-07-13T14:24:53;3.83;;;1.33;;
16593;SDS011;8410;52.532;13.336;2023-07-13T14:27:21;5.57;;;1.88;;
16593;SDS011;8410;52.532;13.336;2023-07-13T14:29:49;6.60;;;1.60;;
16593;SDS011;8410;52.532;13.336;2023-07-13T14:32:17;1.88;;;1.20;;
16593;SDS011;8410;52.532;13.336;2023-07-13T14:34:45;4.72;;;1.30;;
16593;SDS011;8410;52.532;13.336;2023-07-13T14:37:12;3.95;;;1.50;;
16593;SDS011;8410;52.532;13.336;2023-07-13T14:39:43;2.97;;;1.35;;
16593;SDS011;8410;52.532;13.336;2023-07-13T14:42:13;2.88;;;1.25;;
16593;SDS011;8410;52.532;13.336;2023-07-13T14:44:41;3.58;;;1.58;;
16593;SDS011;8410;52.532;13.336;2023-07-13T14:47:08;3.97;;;1.70;;
16593;SDS011;8410;52.532;13.336;2023-07-13T14:49:38;3.35;;;1.58;;
16593;SDS011;8410;52.532;13.336;2023-07-13T14:52:10;2.85;;;1.17;;
16593;SDS011;8410;52.532;13.336;2023-07-13T14:54:40;6.22;;;2.90;;
16593;SDS011;8410;52.532;13.336;2023-07-13T14:57:10;3.53;;;1.45;;
16593;SDS011;8410;52.532;13.336;2023-07-13T14:59:40;2.35;;;1.17;;
16593;SDS011;8410;52.532;13.336;2023-07-13T15:02:14;5.90;;;1.40;;
16593;SDS011;8410;52.532;13.336;2023-07-13T15:04:44;2.28;;;1.20;;
16593;SDS011;8410;52.532;13.336;2023-07-13T15:07:11;2.70;;;1.15;;